Details From KMSY - Louis Armstrong New Orleans Intl
To MWCR - Owen Roberts Intl
Flight Number -
Tags Generated
Created
Modified
Stats Distance 805 nm / 1,490 km
Max Altitude 0 ft / 0 m
Waypoints 3
Social Downloads 2
Likes 0
Share VATSIM

Download

Looking for another format? Having issues loading an existing format? Contact us
Advertisement - Login to hide

Notes

Generated

Route

KMSY GCM MWCR

ID Type Via Altitude Latitude Longitude Leg Dist Tot Dist Heading (true) Name
O KMSY APT - 0 ft / 0 m 29.99177˚ -90.25724˚ - 0 nm - Louis Armstrong New Orleans Intl
GCM VOR - 0 ft / 0 m 19.28939˚ -81.37203˚ 804 nm 804 nm 141° / 145° GRAND CAYMAN VOR-DME
O MWCR APT - 0 ft / 0 m 19.29042˚ -81.36764˚ 0 nm 804 nm 76° / 76° -

Altitude Profile

Advertisement - Login to hide

Weather


0- 5 10 15 20 25 30 35+ Temperature / ° C

Clouds and Precipitation
Forecast for 2017-12-14 06:00 UTC. Updated an hour ago

Ground ~20,000 ft ~40,000 ft Winds

KMSY

Details ICAO KMSY (MSY)
Name Louis Armstrong New Orleans Intl
Region United States
Timezone America/Chicago (UTC-6.0)
Stats Elevation 3 ft / 1 m (AMSL)
Location 29.993349° -90.257406°
Runways 2
Magnetic Variation 0.732° W

METAR

KMSY 140153Z 22005KT 10SM FEW010 BKN270 11/05 A3003 RMK AO2 SLP172 FU FEW010 T01110050

Decode

TAF

TAF KMSY 132340Z 1400/1506 21006KT P6SM FEW250 FM141000 27004KT P6SM SCT200 FM141300 29004KT P6SM SCT200 FM150100 32002KT P6SM BKN200

Decode

Departure Runways

ID Width Length Bearing (true) Bearing (mag) Surface Threshold Offset Overrun Length
01 150 ft / 46 m 7,021 ft / 2,140 m 15.41° 16.14° Concrete 0 ft / 0 m 600 ft / 183 m
10 150 ft / 46 m 10,090 ft / 3,075 m 105.55° 106.28° Concrete 0 ft / 0 m 400 ft / 122 m
19 150 ft / 46 m 7,021 ft / 2,140 m 195.41° 196.14° Concrete 0 ft / 0 m 600 ft / 183 m
28 150 ft / 46 m 10,090 ft / 3,075 m 285.57° 286.30° Concrete 305 ft / 93 m 249 ft / 76 m

MWCR

Details ICAO MWCR (GCM)
Name Owen Roberts Intl
Region Cayman Islands
Timezone America/Cayman (UTC-5.0)
Stats Elevation 7 ft / 2 m (AMSL)
Location 19.292776° -81.357760°
Runways 1
Magnetic Variation 4.988° W

METAR

MWCR 140200Z 03007KT CAVOK 24/19 Q1017

Decode

TAF

TAF MWCR 131700Z 1318/1418 36014KT 9999 FEW016 SCT030 TEMPO 1408/1414 8000 SHRA SCT016 BKN030

Decode

Destination Runways

ID Width Length Bearing (true) Bearing (mag) Surface Threshold Offset Overrun Length
08 148 ft / 45 m 7,016 ft / 2,139 m 75.84° 80.83° Asphalt 0 ft / 0 m 0 ft / 0 m
26 148 ft / 45 m 7,016 ft / 2,139 m 255.85° 260.84° Asphalt 400 ft / 122 m 0 ft / 0 m

Popular Alternatives